createdAt,value
2023-03-22T00:01:03.541Z,6.34
2023-03-22T00:03:04.898Z,6.32
2023-03-22T00:05:06.697Z,6.36
2023-03-22T00:07:08.186Z,6.4
2023-03-22T00:09:10.021Z,6.32
2023-03-22T00:11:11.888Z,6.26
2023-03-22T00:13:13.419Z,6.19
2023-03-22T00:15:15.391Z,6.06
2023-03-22T00:17:16.406Z,5.99
2023-03-22T00:19:17.905Z,5.94
2023-03-22T00:21:19.249Z,5.92
2023-03-22T00:23:20.461Z,5.78
2023-03-22T00:25:22.393Z,5.87
2023-03-22T00:27:23.599Z,5.86
2023-03-22T00:29:25.571Z,5.8
2023-03-22T00:31:26.938Z,5.75
2023-03-22T00:33:28.812Z,5.74
2023-03-22T00:35:30.446Z,5.68
2023-03-22T00:37:32.355Z,5.73
2023-03-22T00:39:33.759Z,5.76
2023-03-22T00:41:34.812Z,5.76
2023-03-22T00:43:36.738Z,5.83
2023-03-22T00:45:38.427Z,5.91
2023-03-22T00:47:39.350Z,6.02
2023-03-22T00:49:41.149Z,6.06
2023-03-22T00:51:42.855Z,6.04
2023-03-22T00:53:44.480Z,5.95
2023-03-22T00:55:46.132Z,6.02
2023-03-22T00:57:47.991Z,6.02
2023-03-22T00:59:49.792Z,5.81
2023-03-22T01:01:51.083Z,5.99
2023-03-22T01:03:52.174Z,5.95
2023-03-22T01:05:53.306Z,6.05
2023-03-22T01:07:54.849Z,6.06
2023-03-22T01:09:56.520Z,5.87
2023-03-22T01:11:57.847Z,5.82
2023-03-22T01:13:59.852Z,6.2
2023-03-22T01:16:01.601Z,6.51
2023-03-22T01:18:03.149Z,6.26
2023-03-22T01:20:04.560Z,6.38
2023-03-22T01:22:06.209Z,6.31
2023-03-22T01:24:07.986Z,6.2
2023-03-22T01:26:09.405Z,6.17
2023-03-22T01:28:10.631Z,6.16
2023-03-22T01:30:11.689Z,6.17
2023-03-22T01:32:12.808Z,6.44
2023-03-22T01:34:14.333Z,6.64
2023-03-22T01:36:16.061Z,6.42
2023-03-22T01:38:17.323Z,6.4
2023-03-22T01:40:18.477Z,6.28
2023-03-22T01:42:19.814Z,6.21
2023-03-22T01:44:20.811Z,6.17
2023-03-22T01:46:22.169Z,6.17
2023-03-22T01:48:31.495Z,6.2
2023-03-22T01:50:25.292Z,6.22
2023-03-22T01:52:26.759Z,6.28
2023-03-22T01:54:27.943Z,6.23
2023-03-22T01:56:29.306Z,6.36
2023-03-22T01:58:30.675Z,6.25
2023-03-22T02:00:32.497Z,6.52
2023-03-22T02:02:34.339Z,6.44
2023-03-22T02:04:35.850Z,6.34
2023-03-22T02:06:37.309Z,6.45
2023-03-22T02:08:39.030Z,6.49
2023-03-22T02:10:40.840Z,6.54
2023-03-22T02:12:42.238Z,6.45
2023-03-22T02:14:44.014Z,6.53
2023-03-22T02:16:45.305Z,6.61
2023-03-22T02:18:47.188Z,6.47
2023-03-22T02:20:48.350Z,6.82
2023-03-22T02:22:49.592Z,6.97
2023-03-22T02:24:50.665Z,6.92
2023-03-22T02:26:51.743Z,7.03
2023-03-22T02:28:53.286Z,7.41
2023-03-22T02:30:54.721Z,7.82
2023-03-22T02:32:55.814Z,8
2023-03-22T02:34:57.053Z,8.01
2023-03-22T02:36:58.468Z,7.89
2023-03-22T02:38:59.808Z,7.45
2023-03-22T02:41:01.557Z,7.1
2023-03-22T02:43:03.522Z,6.96
2023-03-22T02:45:05.203Z,7.12
2023-03-22T02:47:06.977Z,7.29
2023-03-22T02:49:08.718Z,7.19
2023-03-22T02:51:10.446Z,7.45
2023-03-22T02:53:12.218Z,7.3
2023-03-22T02:55:13.901Z,7.01
2023-03-22T02:57:14.961Z,7.03
2023-03-22T02:59:16.911Z,7.09
2023-03-22T03:01:18.632Z,6.79
2023-03-22T03:03:20.199Z,6.79
2023-03-22T03:06:05.114Z,7.05
2023-03-22T03:08:06.801Z,7.49
2023-03-22T03:10:08.739Z,7.87
2023-03-22T03:12:10.387Z,7.89
2023-03-22T03:14:12.301Z,7.85
2023-03-22T03:16:14.035Z,7.7
2023-03-22T03:18:15.587Z,7.45
2023-03-22T03:20:17.285Z,7.23
2023-03-22T03:22:18.896Z,7.18
2023-03-22T03:24:20.672Z,7.21
2023-03-22T03:26:21.977Z,7.28
2023-03-22T03:28:23.205Z,7.41
2023-03-22T03:30:24.927Z,7.41
2023-03-22T03:32:26.320Z,7.19
2023-03-22T03:34:28.267Z,7.09
2023-03-22T03:36:29.813Z,7.07
2023-03-22T03:38:31.198Z,7.11
2023-03-22T03:42:34.690Z,7.35
2023-03-22T03:44:36.111Z,7.43
2023-03-22T03:46:37.453Z,7.49
2023-03-22T03:48:39.411Z,7.52
2023-03-22T03:50:41.388Z,7.66
2023-03-22T03:52:42.230Z,7.54
2023-03-22T03:54:43.520Z,7.58
2023-03-22T03:56:44.622Z,7.74
2023-03-22T03:58:46.258Z,7.82
2023-03-22T04:00:48.151Z,7.85
2023-03-22T04:02:49.288Z,7.94
2023-03-22T04:04:50.406Z,7.99
2023-03-22T04:06:52.245Z,8.13
2023-03-22T04:08:53.892Z,8.27
2023-03-22T04:11:03.671Z,8.25
2023-03-22T04:12:57.452Z,8.33
2023-03-22T04:14:59.327Z,8.39
2023-03-22T04:17:00.650Z,8.34
2023-03-22T04:19:01.978Z,8.26
2023-03-22T04:21:03.825Z,7.7
2023-03-22T04:25:07.670Z,7.09
2023-03-22T04:27:08.843Z,7.25
2023-03-22T04:29:10.530Z,7.04
2023-03-22T04:31:12.218Z,7
2023-03-22T04:33:13.940Z,7.01
2023-03-22T04:35:14.936Z,7.11
2023-03-22T04:37:16.258Z,7.14
2023-03-22T04:39:17.777Z,7.18
2023-03-22T04:41:19.175Z,7.18
2023-03-22T04:43:20.653Z,7.31
2023-03-22T04:45:22.511Z,7.89
2023-03-22T04:47:24.234Z,7.64
2023-03-22T04:49:26.204Z,7.27
2023-03-22T04:51:27.486Z,7.16
2023-03-22T04:57:30.972Z,7.69
2023-03-22T04:59:32.494Z,7.58
2023-03-22T05:01:33.490Z,7.24
2023-03-22T05:03:34.906Z,7.32
2023-03-22T05:05:36.489Z,7.31
2023-03-22T05:07:37.729Z,7.13
2023-03-22T05:09:39.421Z,6.89
2023-03-22T05:11:40.765Z,7.34
2023-03-22T05:13:41.873Z,7.56
2023-03-22T05:15:43.240Z,7.13
2023-03-22T05:17:44.922Z,7.56
2023-03-22T05:19:46.533Z,7.69
2023-03-22T05:21:48.077Z,7.27
2023-03-22T05:23:51.423Z,7.19
2023-03-22T05:25:50.971Z,7.04
2023-03-22T05:27:52.467Z,6.82
2023-03-22T05:29:54.166Z,6.83
2023-03-22T05:31:55.805Z,6.68
2023-03-22T05:33:57.767Z,6.56
2023-03-22T05:35:59.110Z,6.67
2023-03-22T05:40:02.060Z,7.01
2023-03-22T05:42:03.977Z,7.26
2023-03-22T05:44:05.699Z,6.75
2023-03-22T05:46:07.593Z,6.35
2023-03-22T05:48:08.842Z,6.27
2023-03-22T05:50:10.348Z,6.29
2023-03-22T05:52:12.308Z,6.34
2023-03-22T05:54:13.969Z,6.28
2023-03-22T05:56:15.913Z,6.25
2023-03-22T05:58:17.736Z,6.22
2023-03-22T06:00:19.250Z,6.26
2023-03-22T06:02:20.528Z,6.34
2023-03-22T06:04:22.283Z,6.4
2023-03-22T06:06:24.239Z,6.62
2023-03-22T06:08:26.663Z,6.84
2023-03-22T06:10:26.911Z,7.13
2023-03-22T06:12:30.056Z,6.94
2023-03-22T06:14:29.408Z,7.06
2023-03-22T06:16:30.393Z,7.54
2023-03-22T06:18:32.067Z,7.53
2023-03-22T06:20:33.275Z,7.32
2023-03-22T06:22:35.194Z,7.5
2023-03-22T06:24:36.349Z,7.87
2023-03-22T06:26:37.776Z,8.16
2023-03-22T06:28:39.617Z,8.31
2023-03-22T06:30:41.113Z,7.96
2023-03-22T06:32:42.205Z,7.18
2023-03-22T06:34:44.046Z,7.02
2023-03-22T06:36:45.273Z,7.09
2023-03-22T06:38:46.658Z,7.19
2023-03-22T06:40:47.846Z,7.3
2023-03-22T06:42:48.913Z,7.5
2023-03-22T06:44:50.577Z,7.26
2023-03-22T06:46:51.330Z,7.5
2023-03-22T06:48:52.787Z,7.72
2023-03-22T06:50:54.315Z,8.22
2023-03-22T06:52:55.403Z,7.86
2023-03-22T06:54:57.302Z,8.08
2023-03-22T06:56:58.758Z,8.04
2023-03-22T06:58:59.864Z,7.9
2023-03-22T07:01:01.539Z,7.95
2023-03-22T07:03:02.602Z,8.27
2023-03-22T07:05:03.673Z,8.29
2023-03-22T07:07:05.065Z,8.28
2023-03-22T07:09:06.306Z,8.34
2023-03-22T07:11:07.911Z,8.4
2023-03-22T07:13:09.198Z,8.48
2023-03-22T07:15:10.495Z,8.54
2023-03-22T07:17:11.680Z,8.69
2023-03-22T07:19:12.641Z,8.71
2023-03-22T07:21:13.694Z,8.66
2023-03-22T07:23:15.030Z,8.74
2023-03-22T07:25:16.124Z,9.06
2023-03-22T07:27:17.476Z,9.35
2023-03-22T07:29:18.774Z,10.83
2023-03-22T07:31:19.974Z,12.11
2023-03-22T07:33:20.861Z,12.73
2023-03-22T07:35:24.522Z,13
2023-03-22T07:37:24.248Z,12.48
2023-03-22T07:39:25.330Z,12.61
2023-03-22T07:41:26.399Z,13.08
2023-03-22T07:43:27.738Z,13.76
2023-03-22T07:45:28.872Z,13
2023-03-22T07:47:40.672Z,13.19
2023-03-22T07:49:31.245Z,13.29
2023-03-22T07:51:32.251Z,12.16
2023-03-22T07:53:33.517Z,12.33
2023-03-22T07:55:35.724Z,12.13
2023-03-22T07:57:37.033Z,11.78
2023-03-22T07:59:47.444Z,11.85
2023-03-22T08:03:41.479Z,12.24
2023-03-22T08:05:42.789Z,12.88
2023-03-22T08:07:43.330Z,12.96
2023-03-22T08:09:44.391Z,13.14
2023-03-22T08:11:45.302Z,13.16
2023-03-22T08:13:46.239Z,13.61
2023-03-22T08:15:47.736Z,13.2
2023-03-22T08:17:49.233Z,13.04
2023-03-22T08:19:50.689Z,12.82
2023-03-22T08:21:52.362Z,12.95
2023-03-22T08:23:53.596Z,12.8
2023-03-22T08:25:55.317Z,12.88
2023-03-22T08:27:56.745Z,12.99
2023-03-22T08:29:58.915Z,13.2
2023-03-22T08:32:00.622Z,13.06
2023-03-22T08:34:01.408Z,12.86
2023-03-22T08:36:02.854Z,13.12
2023-03-22T08:38:03.945Z,13.04
2023-03-22T08:40:05.096Z,13.12
2023-03-22T08:42:06.167Z,13.5
2023-03-22T08:44:07.967Z,13.48
2023-03-22T08:46:09.080Z,13.78
2023-03-22T08:48:11.741Z,13.71
2023-03-22T08:50:12.974Z,14.23
2023-03-22T08:52:15.462Z,14.03
2023-03-22T08:54:16.923Z,14.1
2023-03-22T08:56:17.757Z,14.21
2023-03-22T08:58:19.553Z,14.4
2023-03-22T09:00:20.696Z,14.78
2023-03-22T09:02:22.080Z,14.31
2023-03-22T09:04:24.220Z,14.2
2023-03-22T09:06:25.084Z,14.38
2023-03-22T09:08:26.822Z,14.56
2023-03-22T09:10:28.544Z,14.3
2023-03-22T09:12:29.945Z,14.33
2023-03-22T09:14:31.866Z,14.38
2023-03-22T09:16:33.339Z,14.37
2023-03-22T09:18:34.933Z,14.23
2023-03-22T09:20:35.884Z,14.43
2023-03-22T09:22:37.493Z,14.13
2023-03-22T09:24:46.759Z,14.22
2023-03-22T09:28:40.930Z,14.79
2023-03-22T09:30:42.330Z,14.21
2023-03-22T09:32:43.712Z,14.19
2023-03-22T09:35:03.412Z,14.11
2023-03-22T09:36:46.417Z,14.1
2023-03-22T09:38:47.863Z,14.06
2023-03-22T09:40:48.833Z,14.27
2023-03-22T09:42:49.878Z,14.72
2023-03-22T09:44:51.597Z,15.14
2023-03-22T09:46:52.640Z,14.8
2023-03-22T09:48:54.415Z,15.36
2023-03-22T09:49:58.340Z,15.03
2023-03-22T09:51:39.686Z,14.58
2023-03-22T09:53:40.659Z,14.79
2023-03-22T09:55:42.306Z,14.41
2023-03-22T09:57:51.333Z,14.69
2023-03-22T09:59:53.357Z,14.35
2023-03-22T10:01:45.748Z,14.23
2023-03-22T10:03:46.871Z,14.25
2023-03-22T10:05:47.706Z,14.37
2023-03-22T10:07:49.025Z,14.38
2023-03-22T10:09:50.165Z,14.31
2023-03-22T10:11:51.005Z,14.29
2023-03-22T10:14:01.600Z,14.02
2023-03-22T10:15:54.327Z,14.23
2023-03-22T10:17:55.944Z,14.19
2023-03-22T10:21:59.301Z,13.71
2023-03-22T10:24:01.012Z,13.55
2023-03-22T10:26:02.017Z,13.41
2023-03-22T10:28:03.475Z,13.44
2023-03-22T10:30:05.265Z,13.53
2023-03-22T10:32:06.766Z,13.57
2023-03-22T10:34:07.771Z,13.62
2023-03-22T10:36:09.289Z,13.72
2023-03-22T10:38:10.339Z,13.7
2023-03-22T10:40:11.729Z,13.69
2023-03-22T10:42:12.986Z,13.83
2023-03-22T10:44:14.734Z,13.96
2023-03-22T10:46:16.588Z,14.06
2023-03-22T10:48:19.297Z,14.24
2023-03-22T10:50:19.326Z,14.32
2023-03-22T10:52:20.700Z,14.2
2023-03-22T10:54:21.673Z,14.34
2023-03-22T10:56:22.528Z,14.64
2023-03-22T10:58:23.503Z,14.71
2023-03-22T11:00:25.278Z,14.86
2023-03-22T11:02:27.048Z,15.32
2023-03-22T11:04:28.133Z,15.01
2023-03-22T11:06:29.661Z,14.8
2023-03-22T11:08:31.074Z,15.09
2023-03-22T11:10:32.508Z,15.22
2023-03-22T11:12:33.976Z,15.52
2023-03-22T11:14:35.493Z,15.45
2023-03-22T11:16:36.458Z,16.11
2023-03-22T11:18:37.806Z,15.8
2023-03-22T11:20:39.168Z,15.72
2023-03-22T11:22:40.460Z,16.11
2023-03-22T11:24:41.496Z,15.64
2023-03-22T11:26:43.198Z,15.21
2023-03-22T11:28:44.967Z,15.46
2023-03-22T11:30:46.794Z,15.77
2023-03-22T11:32:48.122Z,15.44
2023-03-22T11:34:49.035Z,15.8
2023-03-22T11:36:50.304Z,16.05
2023-03-22T11:38:52.142Z,15.32
2023-03-22T11:40:53.559Z,15.43
2023-03-22T11:42:54.890Z,15.55
2023-03-22T11:44:56.643Z,15.8
2023-03-22T11:46:57.478Z,16.3
2023-03-22T11:49:00.902Z,16.5
2023-03-22T11:51:00.509Z,15.85
2023-03-22T11:53:02.269Z,16.17
2023-03-22T11:55:03.235Z,16.08
2023-03-22T11:57:04.731Z,16.28
2023-03-22T11:59:05.942Z,16.05
2023-03-22T12:01:07.038Z,16.41
2023-03-22T12:03:08.316Z,16.43
2023-03-22T12:05:09.890Z,16.27
2023-03-22T12:07:11.370Z,16.11
2023-03-22T12:09:12.759Z,15.9
2023-03-22T12:11:13.648Z,15.98
2023-03-22T12:13:15.432Z,16.28
2023-03-22T12:15:18.022Z,16.06
2023-03-22T12:17:19.279Z,16.26
2023-03-22T12:19:20.756Z,16.43
2023-03-22T12:21:21.770Z,16.5
2023-03-22T12:23:23.682Z,16.95
2023-03-22T12:25:25.087Z,16.79
2023-03-22T12:27:26.559Z,16.55
2023-03-22T12:29:27.516Z,16.06
2023-03-22T12:31:29.038Z,16.4
2023-03-22T12:33:30.017Z,16.55
2023-03-22T12:35:31.751Z,16.52
2023-03-22T12:37:33.014Z,16.41
2023-03-22T12:39:34.751Z,16.52
2023-03-22T12:41:35.992Z,16.38
2023-03-22T12:45:38.464Z,16.86
2023-03-22T12:47:40.066Z,16.8
2023-03-22T12:49:41.151Z,16.5
2023-03-22T12:51:42.959Z,16.46
2023-03-22T12:53:44.335Z,16.39
2023-03-22T12:55:45.489Z,16.37
2023-03-22T12:57:47.008Z,16.45
2023-03-22T12:59:48.795Z,16.55
2023-03-22T13:01:50.177Z,16.76
2023-03-22T13:03:51.650Z,16.72
2023-03-22T13:05:53.218Z,16.54
2023-03-22T13:07:54.698Z,16.76
2023-03-22T13:09:55.269Z,16.67
2023-03-22T13:11:56.222Z,16.52
2023-03-22T13:13:57.448Z,16.71
2023-03-22T13:15:58.331Z,16.52
2023-03-22T13:18:00.136Z,16.55
2023-03-22T13:20:01.037Z,16.47
2023-03-22T13:22:02.838Z,16.68
2023-03-22T13:24:03.731Z,16.95
2023-03-22T13:26:04.689Z,16.88
2023-03-22T13:28:06.213Z,17.16
2023-03-22T13:30:07.176Z,17.05
2023-03-22T13:32:08.523Z,17.13
2023-03-22T13:34:09.619Z,16.85
2023-03-22T13:36:10.713Z,16.85
2023-03-22T13:38:12.096Z,16.83
2023-03-22T13:40:13.133Z,16.57
2023-03-22T13:42:14.818Z,16.63
2023-03-22T13:44:16.485Z,16.61
2023-03-22T13:46:17.415Z,16.59
2023-03-22T13:48:19.176Z,16.71
2023-03-22T13:50:20.235Z,16.85
2023-03-22T13:52:21.581Z,17.08
2023-03-22T13:54:22.644Z,17.29
2023-03-22T13:56:23.549Z,17.62
2023-03-22T13:58:24.898Z,17.52
2023-03-22T14:00:25.962Z,17.25
2023-03-22T14:02:26.902Z,17.24
2023-03-22T14:04:28.552Z,17.3
2023-03-22T14:06:29.731Z,17.29
2023-03-22T14:08:31.243Z,17.29
2023-03-22T14:10:32.879Z,17.35
2023-03-22T14:12:33.986Z,17.26
2023-03-22T14:14:35.758Z,17.37
2023-03-22T14:16:36.879Z,17.28
2023-03-22T14:18:37.879Z,17.19
2023-03-22T14:20:39.510Z,17.09
2023-03-22T14:53:01.799Z,17.38
2023-03-22T14:59:05.929Z,17.14
2023-03-22T15:03:08.162Z,17.13
2023-03-22T15:05:09.036Z,17.08
2023-03-22T15:09:11.150Z,17.25
2023-03-22T15:13:13.674Z,17.55
2023-03-22T15:15:15.294Z,17.85
2023-03-22T15:17:16.849Z,17.76
2023-03-22T15:19:18.981Z,17.66
2023-03-22T15:21:19.810Z,17.88
2023-03-22T15:25:22.865Z,18.07
2023-03-22T15:27:23.917Z,17.83
2023-03-22T15:29:25.401Z,17.84
2023-03-22T15:31:26.921Z,18.06
2023-03-22T15:35:29.647Z,18.13
2023-03-22T15:37:31.124Z,17.88
2023-03-22T15:41:33.498Z,17.81
2023-03-22T15:45:36.038Z,17.86
2023-03-22T15:47:37.964Z,17.73
2023-03-22T15:51:39.792Z,17.79
2023-03-22T15:55:41.740Z,17.48
2023-03-22T15:57:43.322Z,17.41
2023-03-22T15:59:44.241Z,17.32
2023-03-22T16:01:46.536Z,17.23
2023-03-22T16:03:48.334Z,17.18
2023-03-22T16:07:50.271Z,17.33
2023-03-22T16:09:51.170Z,17.32
2023-03-22T16:11:52.896Z,17.39
2023-03-22T16:13:54.417Z,17.4
2023-03-22T16:17:57.201Z,17.35
2023-03-22T16:19:58.849Z,17.33
2023-03-22T16:24:01.405Z,17.24
2023-03-22T16:28:04.333Z,17.38
2023-03-22T16:30:05.921Z,17.37
2023-03-22T16:34:08.649Z,17.3
2023-03-22T16:36:53.902Z,16.97
2023-03-22T16:38:55.612Z,16.95
2023-03-22T16:40:57.151Z,16.97
2023-03-22T16:42:58.100Z,16.82
2023-03-22T16:44:59.236Z,16.73
2023-03-22T16:49:02.123Z,16.62
2023-03-22T16:51:03.084Z,16.54
2023-03-22T16:53:04.107Z,16.55
2023-03-22T16:55:05.372Z,16.5
2023-03-22T16:57:07.127Z,16.38
2023-03-22T17:01:09.988Z,16.33
2023-03-22T17:03:10.828Z,16.21
2023-03-22T17:05:12.654Z,16.22
2023-03-22T17:07:14.430Z,16.09
2023-03-22T17:11:17.105Z,16.07
2023-03-22T17:13:18.448Z,16.09
2023-03-22T17:17:21.334Z,16.01
2023-03-22T17:21:23.581Z,16.08
2023-03-22T17:23:25.214Z,15.88
2023-03-22T17:27:28.453Z,15.91
2023-03-22T17:31:31.693Z,15.85
2023-03-22T17:33:35.187Z,15.77
2023-03-22T17:35:34.982Z,15.74
2023-03-22T17:37:36.473Z,15.64
2023-03-22T17:43:40.797Z,15.46
2023-03-22T17:46:11.166Z,15.34
2023-03-22T17:47:44.969Z,15.25
2023-03-22T17:49:45.101Z,15.28
2023-03-22T17:54:27.037Z,15.06
2023-03-22T17:56:13.661Z,15.09
2023-03-22T17:59:51.280Z,15.32
2023-03-22T18:03:53.408Z,14.98
2023-03-22T18:05:54.527Z,15.07
2023-03-22T18:09:57.736Z,14.84
2023-03-22T18:14:10.775Z,14.72
2023-03-22T18:16:02.377Z,14.68
2023-03-22T18:18:04.223Z,14.71
2023-03-22T18:20:14.709Z,14.74
2023-03-22T18:22:07.599Z,14.8
2023-03-22T18:28:12.217Z,14.88
2023-03-22T18:30:13.694Z,14.86
2023-03-22T18:36:17.554Z,14.8
2023-03-22T18:38:37.807Z,14.78
2023-03-22T18:42:25.377Z,14.77
2023-03-22T18:46:24.595Z,14.79
2023-03-22T18:48:25.767Z,14.77
2023-03-22T18:52:40.149Z,14.7
2023-03-22T18:56:32.324Z,14.63
2023-03-22T18:58:32.046Z,14.54
2023-03-22T19:02:39.616Z,14.74
2023-03-22T19:04:36.117Z,14.7
2023-03-22T19:06:37.398Z,14.56
2023-03-22T19:08:39.276Z,14.59
2023-03-22T19:12:41.562Z,14.65
2023-03-22T19:15:17.834Z,14.56
2023-03-22T19:16:44.606Z,14.6
2023-03-22T19:18:46.373Z,14.57
2023-03-22T19:24:50.412Z,14.55
2023-03-22T19:26:58.580Z,14.5
2023-03-22T19:28:52.812Z,14.49
2023-03-22T19:30:54.494Z,14.62
2023-03-22T19:34:57.200Z,14.63
2023-03-22T19:36:58.785Z,14.39
2023-03-22T19:41:35.795Z,14.03
2023-03-22T19:45:03.293Z,13.81
2023-03-22T19:47:04.565Z,13.78
2023-03-22T19:51:07.396Z,13.88
2023-03-22T19:55:10.392Z,14.04
2023-03-22T19:57:12.237Z,13.98
2023-03-22T19:59:16.891Z,13.91
2023-03-22T20:01:15.269Z,13.89
2023-03-22T20:03:16.082Z,13.84
2023-03-22T20:07:18.829Z,13.73
2023-03-22T20:09:19.978Z,13.7
2023-03-22T20:11:27.701Z,13.69
2023-03-22T20:13:22.731Z,13.74
2023-03-22T20:17:26.319Z,13.73
2023-03-22T20:19:26.620Z,13.66
2023-03-22T20:23:31.136Z,13.57
2023-03-22T20:27:32.242Z,13.53
2023-03-22T20:29:33.299Z,13.58
2023-03-22T20:33:36.061Z,13.68
2023-03-22T20:37:38.822Z,13.56
2023-03-22T20:39:40.703Z,13.57
2023-03-22T20:41:42.368Z,13.61
2023-03-22T20:43:43.799Z,13.6
2023-03-22T20:45:45.027Z,13.48
2023-03-22T20:49:48.220Z,13.46
2023-03-22T20:51:49.148Z,13.52
2023-03-22T20:53:52.005Z,13.57
2023-03-22T20:55:52.381Z,13.53
2023-03-22T20:59:55.427Z,13.49
2023-03-22T21:01:57.140Z,13.44
2023-03-22T21:06:00.113Z,13.5
2023-03-22T21:10:02.065Z,13.4
2023-03-22T21:12:03.362Z,13.4
2023-03-22T21:16:06.778Z,13.31
2023-03-22T21:22:10.808Z,13.28
2023-03-22T21:26:13.487Z,13.17
2023-03-22T21:28:14.550Z,13.13
2023-03-22T21:32:17.505Z,13.1
2023-03-22T21:36:20.552Z,13.1
2023-03-22T21:38:21.821Z,13.14
2023-03-22T21:40:23.330Z,13.14
2023-03-22T21:42:24.437Z,12.84
2023-03-22T21:44:25.613Z,13.02
2023-03-22T21:48:28.460Z,12.82
2023-03-22T21:50:30.184Z,12.78
2023-03-22T21:52:31.712Z,12.67
2023-03-22T21:54:33.476Z,12.65
2023-03-22T21:58:35.645Z,12.85
2023-03-22T22:00:37.007Z,12.88
2023-03-22T22:04:39.187Z,12.97
2023-03-22T22:08:42.406Z,12.83
2023-03-22T22:10:43.857Z,12.79
2023-03-22T22:14:47.275Z,12.64
2023-03-22T22:18:50.100Z,12.75
2023-03-22T22:20:51.213Z,12.77
2023-03-22T22:22:52.793Z,12.99
2023-03-22T22:24:54.363Z,12.8
2023-03-22T22:26:55.687Z,12.75
2023-03-22T22:30:58.513Z,12.64
2023-03-22T22:33:00.276Z,12.62
2023-03-22T22:35:01.621Z,12.66
2023-03-22T22:37:03.383Z,12.75
2023-03-22T22:41:06.957Z,12.74
2023-03-22T22:43:08.552Z,12.78
2023-03-22T22:45:10.212Z,12.76
2023-03-22T22:47:11.514Z,12.78
2023-03-22T22:51:14.176Z,12.8
2023-03-22T22:53:15.183Z,12.84
2023-03-22T22:55:16.698Z,12.8
2023-03-22T22:57:17.943Z,12.78
2023-03-22T22:59:19.188Z,12.69
2023-03-22T23:03:22.435Z,12.76
2023-03-22T23:05:23.341Z,12.72
2023-03-22T23:07:24.411Z,12.69
2023-03-22T23:09:25.957Z,12.82
2023-03-22T23:13:29.338Z,12.88
2023-03-22T23:15:31.135Z,12.99
2023-03-22T23:19:33.890Z,13.01
2023-03-22T23:22:19.446Z,12.87
2023-03-22T23:24:21.002Z,12.81
2023-03-22T23:28:23.661Z,12.9
2023-03-22T23:30:24.878Z,13.19
2023-03-22T23:32:26.264Z,13.15
2023-03-22T23:34:27.449Z,13.23
2023-03-22T23:36:29.075Z,13.23
2023-03-22T23:40:32.147Z,13.25
2023-03-22T23:42:33.796Z,13.3
2023-03-22T23:44:35.209Z,13.26
2023-03-22T23:46:36.419Z,13.32
2023-03-22T23:50:39.795Z,13.22
2023-03-22T23:52:41.425Z,13.27
2023-03-22T23:56:44.252Z,13.33
